LDZA/ZAG METAR and TAF weather

Enter ICAO airport designator
Station Type Date Time Source
LDZA METAR 2019/06/19 02:30 UTC NOAA

LDZA 190230Z 28002KT 9999 MIFG NSC 18/17 Q1013 TEMPO 3000 MIFG BR


Station Type Date Time Source
LDZA Decoded METAR 2019/06/19 02:30 UTC NOAA

Zagreb / Pleso, Croatia (LDZA) 45-44N 016-04E 107M
Jun 18, 2019 - 10:30 PM EDT / 2019.06.19 0230 UTC
Wind: from the W (280 degrees) at 2 MPH (2 KT):0
Visibility: greater than 7 mile(s):0
Weather: shallow fog
Temperature: 64 F (18 C)
Dew Point: 62 F (17 C)
Relative Humidity: 93%
Pressure (altimeter): 29.91 in. Hg (1013 hPa)
ob: LDZA 190230Z 28002KT 9999 MIFG NSC 18/17 Q1013 TEMPO 3000 MIFG BR
cycle: 2

Station Type Date Time Source
LDZA TAF 2019/06/18 18:27 UTC NOAA

TAF LDZA 181725Z 1818/1918 VRB02KT CAVOK TX27/1913Z TN19/1903Z PROB30
TEMPO 1912/1918 -TSRA FEW035CB

Example: see airport list